sensor_id;sensor_type;location;lat;lon;timestamp;P1;durP1;ratioP1;P2;durP2;ratioP2
23310;SDS011;11828;51.508;18.118;2022-08-21T00:00:18;13.10;;;7.38;;
23310;SDS011;11828;51.508;18.118;2022-08-21T00:03:04;13.32;;;7.43;;
23310;SDS011;11828;51.508;18.118;2022-08-21T00:05:35;13.65;;;7.75;;
23310;SDS011;11828;51.508;18.118;2022-08-21T00:08:11;14.00;;;7.97;;
23310;SDS011;11828;51.508;18.118;2022-08-21T00:10:38;15.15;;;7.55;;
23310;SDS011;11828;51.508;18.118;2022-08-21T00:13:07;11.98;;;7.47;;
23310;SDS011;11828;51.508;18.118;2022-08-21T00:15:35;52.95;;;31.58;;
23310;SDS011;11828;51.508;18.118;2022-08-21T00:18:04;15.00;;;7.57;;
23310;SDS011;11828;51.508;18.118;2022-08-21T00:20:32;11.73;;;6.95;;
23310;SDS011;11828;51.508;18.118;2022-08-21T00:22:59;11.75;;;7.22;;
23310;SDS011;11828;51.508;18.118;2022-08-21T00:25:25;12.15;;;7.80;;
23310;SDS011;11828;51.508;18.118;2022-08-21T00:27:53;12.38;;;7.72;;
23310;SDS011;11828;51.508;18.118;2022-08-21T00:30:20;10.18;;;7.28;;
23310;SDS011;11828;51.508;18.118;2022-08-21T00:32:49;11.68;;;7.25;;
23310;SDS011;11828;51.508;18.118;2022-08-21T00:35:18;10.80;;;7.55;;
23310;SDS011;11828;51.508;18.118;2022-08-21T00:37:48;9.88;;;7.25;;
23310;SDS011;11828;51.508;18.118;2022-08-21T00:40:16;9.25;;;6.72;;
23310;SDS011;11828;51.508;18.118;2022-08-21T00:42:46;8.73;;;7.20;;
23310;SDS011;11828;51.508;18.118;2022-08-21T00:45:12;9.40;;;6.88;;
23310;SDS011;11828;51.508;18.118;2022-08-21T00:47:39;7.97;;;6.25;;
23310;SDS011;11828;51.508;18.118;2022-08-21T00:50:06;10.77;;;6.95;;
23310;SDS011;11828;51.508;18.118;2022-08-21T00:52:34;9.05;;;6.85;;
23310;SDS011;11828;51.508;18.118;2022-08-21T00:55:03;9.07;;;6.72;;
23310;SDS011;11828;51.508;18.118;2022-08-21T00:57:34;9.25;;;6.60;;
23310;SDS011;11828;51.508;18.118;2022-08-21T01:00:09;9.45;;;6.40;;
23310;SDS011;11828;51.508;18.118;2022-08-21T01:02:41;10.25;;;6.30;;
23310;SDS011;11828;51.508;18.118;2022-08-21T01:05:08;7.55;;;5.75;;
23310;SDS011;11828;51.508;18.118;2022-08-21T01:07:35;8.55;;;6.28;;
23310;SDS011;11828;51.508;18.118;2022-08-21T01:10:03;7.70;;;6.40;;
23310;SDS011;11828;51.508;18.118;2022-08-21T01:12:31;9.55;;;7.22;;
23310;SDS011;11828;51.508;18.118;2022-08-21T01:14:58;10.07;;;7.30;;
23310;SDS011;11828;51.508;18.118;2022-08-21T01:17:28;7.80;;;6.53;;
23310;SDS011;11828;51.508;18.118;2022-08-21T01:19:59;10.55;;;7.22;;
23310;SDS011;11828;51.508;18.118;2022-08-21T01:22:26;9.75;;;7.10;;
23310;SDS011;11828;51.508;18.118;2022-08-21T01:24:52;9.23;;;7.05;;
23310;SDS011;11828;51.508;18.118;2022-08-21T01:27:19;12.10;;;6.63;;
23310;SDS011;11828;51.508;18.118;2022-08-21T01:30:03;10.00;;;6.93;;
23310;SDS011;11828;51.508;18.118;2022-08-21T01:32:34;8.57;;;6.68;;
23310;SDS011;11828;51.508;18.118;2022-08-21T01:35:00;9.30;;;6.88;;
23310;SDS011;11828;51.508;18.118;2022-08-21T01:37:28;10.23;;;6.75;;
23310;SDS011;11828;51.508;18.118;2022-08-21T01:39:54;10.95;;;7.32;;
23310;SDS011;11828;51.508;18.118;2022-08-21T01:42:20;9.35;;;7.22;;
23310;SDS011;11828;51.508;18.118;2022-08-21T01:44:46;10.57;;;7.50;;
23310;SDS011;11828;51.508;18.118;2022-08-21T01:47:13;10.18;;;7.10;;
23310;SDS011;11828;51.508;18.118;2022-08-21T01:49:40;11.43;;;7.13;;
23310;SDS011;11828;51.508;18.118;2022-08-21T01:52:08;10.02;;;7.05;;
23310;SDS011;11828;51.508;18.118;2022-08-21T01:54:34;11.95;;;7.20;;
23310;SDS011;11828;51.508;18.118;2022-08-21T01:57:01;9.98;;;6.57;;
23310;SDS011;11828;51.508;18.118;2022-08-21T01:59:28;11.32;;;7.93;;
23310;SDS011;11828;51.508;18.118;2022-08-21T02:01:54;10.52;;;7.80;;
23310;SDS011;11828;51.508;18.118;2022-08-21T02:04:21;8.98;;;7.18;;
23310;SDS011;11828;51.508;18.118;2022-08-21T02:06:48;10.00;;;7.68;;
23310;SDS011;11828;51.508;18.118;2022-08-21T02:09:15;10.88;;;7.18;;
23310;SDS011;11828;51.508;18.118;2022-08-21T02:11:42;10.45;;;7.00;;
23310;SDS011;11828;51.508;18.118;2022-08-21T02:14:09;12.27;;;7.30;;
23310;SDS011;11828;51.508;18.118;2022-08-21T02:16:37;9.55;;;7.05;;
23310;SDS011;11828;51.508;18.118;2022-08-21T02:19:04;7.68;;;5.43;;
23310;SDS011;11828;51.508;18.118;2022-08-21T02:21:31;11.85;;;5.85;;
23310;SDS011;11828;51.508;18.118;2022-08-21T02:23:57;8.18;;;6.00;;
23310;SDS011;11828;51.508;18.118;2022-08-21T02:26:24;9.18;;;5.80;;
23310;SDS011;11828;51.508;18.118;2022-08-21T02:28:50;10.38;;;6.30;;
23310;SDS011;11828;51.508;18.118;2022-08-21T02:31:17;7.53;;;5.70;;
23310;SDS011;11828;51.508;18.118;2022-08-21T02:33:43;8.93;;;6.03;;
23310;SDS011;11828;51.508;18.118;2022-08-21T02:36:09;7.53;;;5.55;;
23310;SDS011;11828;51.508;18.118;2022-08-21T02:38:37;8.68;;;5.82;;
23310;SDS011;11828;51.508;18.118;2022-08-21T02:41:07;9.00;;;5.63;;
23310;SDS011;11828;51.508;18.118;2022-08-21T02:43:41;10.10;;;6.05;;
23310;SDS011;11828;51.508;18.118;2022-08-21T02:46:08;8.95;;;6.05;;
23310;SDS011;11828;51.508;18.118;2022-08-21T02:48:37;10.23;;;5.55;;
23310;SDS011;11828;51.508;18.118;2022-08-21T02:51:05;10.50;;;5.80;;
23310;SDS011;11828;51.508;18.118;2022-08-21T02:53:35;9.75;;;5.55;;
23310;SDS011;11828;51.508;18.118;2022-08-21T02:56:03;11.75;;;5.82;;
23310;SDS011;11828;51.508;18.118;2022-08-21T02:58:33;7.75;;;5.30;;
23310;SDS011;11828;51.508;18.118;2022-08-21T03:01:04;7.72;;;5.88;;
23310;SDS011;11828;51.508;18.118;2022-08-21T03:03:35;8.20;;;5.40;;
23310;SDS011;11828;51.508;18.118;2022-08-21T03:06:04;8.93;;;5.68;;
23310;SDS011;11828;51.508;18.118;2022-08-21T03:08:32;10.27;;;5.50;;
23310;SDS011;11828;51.508;18.118;2022-08-21T03:10:59;8.25;;;5.43;;
23310;SDS011;11828;51.508;18.118;2022-08-21T03:13:26;9.45;;;5.30;;
23310;SDS011;11828;51.508;18.118;2022-08-21T03:15:53;8.30;;;5.65;;
23310;SDS011;11828;51.508;18.118;2022-08-21T03:18:20;6.28;;;4.95;;
23310;SDS011;11828;51.508;18.118;2022-08-21T03:20:47;9.40;;;5.07;;
23310;SDS011;11828;51.508;18.118;2022-08-21T03:23:14;7.38;;;4.40;;
23310;SDS011;11828;51.508;18.118;2022-08-21T03:25:42;8.35;;;4.90;;
23310;SDS011;11828;51.508;18.118;2022-08-21T03:28:11;5.57;;;4.38;;
23310;SDS011;11828;51.508;18.118;2022-08-21T03:30:43;8.95;;;4.65;;
23310;SDS011;11828;51.508;18.118;2022-08-21T03:33:11;6.45;;;4.72;;
23310;SDS011;11828;51.508;18.118;2022-08-21T03:35:38;8.75;;;5.32;;
23310;SDS011;11828;51.508;18.118;2022-08-21T03:38:05;8.27;;;5.10;;
23310;SDS011;11828;51.508;18.118;2022-08-21T03:40:32;8.88;;;5.03;;
23310;SDS011;11828;51.508;18.118;2022-08-21T03:42:58;8.82;;;5.18;;
23310;SDS011;11828;51.508;18.118;2022-08-21T03:45:24;7.80;;;4.57;;
23310;SDS011;11828;51.508;18.118;2022-08-21T03:47:51;10.02;;;5.88;;
23310;SDS011;11828;51.508;18.118;2022-08-21T03:50:23;7.47;;;4.72;;
23310;SDS011;11828;51.508;18.118;2022-08-21T03:52:52;5.95;;;4.35;;
23310;SDS011;11828;51.508;18.118;2022-08-21T03:55:18;9.52;;;4.72;;
23310;SDS011;11828;51.508;18.118;2022-08-21T03:57:44;6.40;;;4.45;;
23310;SDS011;11828;51.508;18.118;2022-08-21T04:00:11;10.18;;;5.05;;
23310;SDS011;11828;51.508;18.118;2022-08-21T04:02:39;5.28;;;3.85;;
23310;SDS011;11828;51.508;18.118;2022-08-21T04:05:08;4.57;;;3.80;;
23310;SDS011;11828;51.508;18.118;2022-08-21T04:07:37;7.68;;;3.85;;
23310;SDS011;11828;51.508;18.118;2022-08-21T04:10:04;7.05;;;3.90;;
23310;SDS011;11828;51.508;18.118;2022-08-21T04:12:32;6.35;;;4.15;;
23310;SDS011;11828;51.508;18.118;2022-08-21T04:14:58;5.53;;;3.70;;
23310;SDS011;11828;51.508;18.118;2022-08-21T04:17:26;8.90;;;4.82;;
23310;SDS011;11828;51.508;18.118;2022-08-21T04:19:53;7.15;;;4.43;;
23310;SDS011;11828;51.508;18.118;2022-08-21T04:22:19;8.18;;;4.35;;
23310;SDS011;11828;51.508;18.118;2022-08-21T04:24:46;7.75;;;4.47;;
23310;SDS011;11828;51.508;18.118;2022-08-21T04:27:12;7.05;;;4.07;;
23310;SDS011;11828;51.508;18.118;2022-08-21T04:29:38;7.97;;;3.92;;
23310;SDS011;11828;51.508;18.118;2022-08-21T04:32:04;4.38;;;2.97;;
23310;SDS011;11828;51.508;18.118;2022-08-21T04:34:30;6.00;;;3.60;;
23310;SDS011;11828;51.508;18.118;2022-08-21T04:36:57;6.35;;;3.13;;
23310;SDS011;11828;51.508;18.118;2022-08-21T04:39:23;7.85;;;3.38;;
23310;SDS011;11828;51.508;18.118;2022-08-21T04:41:49;9.27;;;3.92;;
23310;SDS011;11828;51.508;18.118;2022-08-21T04:44:15;8.57;;;3.30;;
23310;SDS011;11828;51.508;18.118;2022-08-21T04:46:41;7.13;;;3.33;;
23310;SDS011;11828;51.508;18.118;2022-08-21T04:49:07;7.32;;;3.55;;
23310;SDS011;11828;51.508;18.118;2022-08-21T04:51:34;11.60;;;5.32;;
23310;SDS011;11828;51.508;18.118;2022-08-21T04:54:10;11.20;;;5.78;;
23310;SDS011;11828;51.508;18.118;2022-08-21T04:56:44;8.77;;;4.20;;
23310;SDS011;11828;51.508;18.118;2022-08-21T04:59:22;7.18;;;3.22;;
23310;SDS011;11828;51.508;18.118;2022-08-21T05:01:57;6.35;;;3.67;;
23310;SDS011;11828;51.508;18.118;2022-08-21T05:04:25;7.38;;;3.85;;
23310;SDS011;11828;51.508;18.118;2022-08-21T05:06:56;8.82;;;4.20;;
23310;SDS011;11828;51.508;18.118;2022-08-21T05:09:25;8.05;;;4.72;;
23310;SDS011;11828;51.508;18.118;2022-08-21T05:11:53;5.97;;;4.30;;
23310;SDS011;11828;51.508;18.118;2022-08-21T05:14:19;7.10;;;4.35;;
23310;SDS011;11828;51.508;18.118;2022-08-21T05:16:46;9.32;;;4.65;;
23310;SDS011;11828;51.508;18.118;2022-08-21T05:19:12;8.60;;;4.90;;
23310;SDS011;11828;51.508;18.118;2022-08-21T05:21:40;9.02;;;5.90;;
23310;SDS011;11828;51.508;18.118;2022-08-21T05:24:08;10.98;;;6.35;;
23310;SDS011;11828;51.508;18.118;2022-08-21T05:26:36;13.40;;;6.50;;
23310;SDS011;11828;51.508;18.118;2022-08-21T05:29:03;11.20;;;7.22;;
23310;SDS011;11828;51.508;18.118;2022-08-21T05:31:30;12.68;;;7.65;;
23310;SDS011;11828;51.508;18.118;2022-08-21T05:33:56;8.68;;;6.10;;
23310;SDS011;11828;51.508;18.118;2022-08-21T05:36:22;9.30;;;5.70;;
23310;SDS011;11828;51.508;18.118;2022-08-21T05:38:49;9.10;;;6.22;;
23310;SDS011;11828;51.508;18.118;2022-08-21T05:41:15;13.88;;;9.70;;
23310;SDS011;11828;51.508;18.118;2022-08-21T05:43:41;20.92;;;17.50;;
23310;SDS011;11828;51.508;18.118;2022-08-21T05:46:07;25.33;;;21.88;;
23310;SDS011;11828;51.508;18.118;2022-08-21T05:48:34;28.88;;;25.02;;
23310;SDS011;11828;51.508;18.118;2022-08-21T05:51:08;25.33;;;19.45;;
23310;SDS011;11828;51.508;18.118;2022-08-21T05:53:38;13.15;;;10.60;;
23310;SDS011;11828;51.508;18.118;2022-08-21T05:56:07;10.40;;;7.18;;
23310;SDS011;11828;51.508;18.118;2022-08-21T05:58:34;6.82;;;5.78;;
23310;SDS011;11828;51.508;18.118;2022-08-21T06:01:02;7.78;;;5.70;;
23310;SDS011;11828;51.508;18.118;2022-08-21T06:03:30;6.72;;;5.20;;
23310;SDS011;11828;51.508;18.118;2022-08-21T06:05:59;6.43;;;5.00;;
23310;SDS011;11828;51.508;18.118;2022-08-21T06:08:27;8.13;;;5.68;;
23310;SDS011;11828;51.508;18.118;2022-08-21T06:10:54;7.80;;;6.60;;
23310;SDS011;11828;51.508;18.118;2022-08-21T06:13:23;9.77;;;6.97;;
23310;SDS011;11828;51.508;18.118;2022-08-21T06:15:50;7.75;;;5.63;;
23310;SDS011;11828;51.508;18.118;2022-08-21T06:18:30;6.85;;;5.13;;
23310;SDS011;11828;51.508;18.118;2022-08-21T06:20:56;5.07;;;4.28;;
23310;SDS011;11828;51.508;18.118;2022-08-21T06:23:22;4.43;;;3.70;;
23310;SDS011;11828;51.508;18.118;2022-08-21T06:25:48;6.80;;;3.90;;
23310;SDS011;11828;51.508;18.118;2022-08-21T06:28:15;5.47;;;3.30;;
23310;SDS011;11828;51.508;18.118;2022-08-21T06:30:41;4.70;;;3.13;;
23310;SDS011;11828;51.508;18.118;2022-08-21T06:33:07;4.05;;;2.92;;
23310;SDS011;11828;51.508;18.118;2022-08-21T06:35:33;4.20;;;2.85;;
23310;SDS011;11828;51.508;18.118;2022-08-21T06:38:00;3.30;;;2.47;;
23310;SDS011;11828;51.508;18.118;2022-08-21T06:40:26;4.53;;;2.10;;
23310;SDS011;11828;51.508;18.118;2022-08-21T06:42:54;3.25;;;2.00;;
23310;SDS011;11828;51.508;18.118;2022-08-21T06:45:20;3.10;;;1.88;;
23310;SDS011;11828;51.508;18.118;2022-08-21T06:47:47;2.72;;;1.88;;
23310;SDS011;11828;51.508;18.118;2022-08-21T06:50:13;1.60;;;1.23;;
23310;SDS011;11828;51.508;18.118;2022-08-21T06:52:39;1.95;;;1.38;;
23310;SDS011;11828;51.508;18.118;2022-08-21T06:55:06;3.08;;;2.03;;
23310;SDS011;11828;51.508;18.118;2022-08-21T06:57:35;3.33;;;1.90;;
23310;SDS011;11828;51.508;18.118;2022-08-21T07:00:03;3.45;;;1.70;;
23310;SDS011;11828;51.508;18.118;2022-08-21T07:02:31;2.10;;;1.45;;
23310;SDS011;11828;51.508;18.118;2022-08-21T07:04:58;3.33;;;1.80;;
23310;SDS011;11828;51.508;18.118;2022-08-21T07:07:25;3.72;;;1.75;;
23310;SDS011;11828;51.508;18.118;2022-08-21T07:09:51;2.80;;;1.67;;
23310;SDS011;11828;51.508;18.118;2022-08-21T07:12:17;2.53;;;1.80;;
23310;SDS011;11828;51.508;18.118;2022-08-21T07:14:43;3.85;;;2.17;;
23310;SDS011;11828;51.508;18.118;2022-08-21T07:17:09;3.13;;;1.95;;
23310;SDS011;11828;51.508;18.118;2022-08-21T07:19:35;2.25;;;1.70;;
23310;SDS011;11828;51.508;18.118;2022-08-21T07:22:02;3.03;;;1.80;;
23310;SDS011;11828;51.508;18.118;2022-08-21T07:24:28;2.72;;;2.17;;
23310;SDS011;11828;51.508;18.118;2022-08-21T07:26:54;3.05;;;1.92;;
23310;SDS011;11828;51.508;18.118;2022-08-21T07:29:20;4.63;;;2.40;;
23310;SDS011;11828;51.508;18.118;2022-08-21T07:31:46;2.97;;;1.90;;
23310;SDS011;11828;51.508;18.118;2022-08-21T07:34:13;2.70;;;2.03;;
23310;SDS011;11828;51.508;18.118;2022-08-21T07:36:39;2.63;;;1.98;;
23310;SDS011;11828;51.508;18.118;2022-08-21T07:39:05;2.47;;;1.92;;
23310;SDS011;11828;51.508;18.118;2022-08-21T07:41:31;2.30;;;1.98;;
23310;SDS011;11828;51.508;18.118;2022-08-21T07:43:57;2.03;;;1.83;;
23310;SDS011;11828;51.508;18.118;2022-08-21T07:46:25;4.05;;;1.95;;
23310;SDS011;11828;51.508;18.118;2022-08-21T07:48:51;2.83;;;2.40;;
23310;SDS011;11828;51.508;18.118;2022-08-21T07:51:21;2.47;;;2.03;;
23310;SDS011;11828;51.508;18.118;2022-08-21T07:53:51;3.20;;;2.38;;
23310;SDS011;11828;51.508;18.118;2022-08-21T07:56:20;2.97;;;2.40;;
23310;SDS011;11828;51.508;18.118;2022-08-21T07:58:46;2.88;;;2.38;;
23310;SDS011;11828;51.508;18.118;2022-08-21T08:01:13;4.43;;;2.70;;
23310;SDS011;11828;51.508;18.118;2022-08-21T08:03:40;3.50;;;2.67;;
23310;SDS011;11828;51.508;18.118;2022-08-21T08:06:06;3.47;;;2.55;;
23310;SDS011;11828;51.508;18.118;2022-08-21T08:08:37;4.35;;;2.95;;
23310;SDS011;11828;51.508;18.118;2022-08-21T08:11:06;3.17;;;2.63;;
23310;SDS011;11828;51.508;18.118;2022-08-21T08:13:40;4.25;;;2.88;;
23310;SDS011;11828;51.508;18.118;2022-08-21T08:16:09;4.18;;;2.85;;
23310;SDS011;11828;51.508;18.118;2022-08-21T08:18:35;3.88;;;3.08;;
23310;SDS011;11828;51.508;18.118;2022-08-21T08:21:02;3.75;;;3.00;;
23310;SDS011;11828;51.508;18.118;2022-08-21T08:23:29;4.63;;;3.25;;
23310;SDS011;11828;51.508;18.118;2022-08-21T08:25:56;3.80;;;3.15;;
23310;SDS011;11828;51.508;18.118;2022-08-21T08:28:22;4.53;;;3.35;;
23310;SDS011;11828;51.508;18.118;2022-08-21T08:30:48;4.15;;;3.60;;
23310;SDS011;11828;51.508;18.118;2022-08-21T08:33:15;4.13;;;3.63;;
23310;SDS011;11828;51.508;18.118;2022-08-21T08:35:46;5.43;;;4.22;;
23310;SDS011;11828;51.508;18.118;2022-08-21T08:38:15;5.70;;;4.47;;
23310;SDS011;11828;51.508;18.118;2022-08-21T08:40:50;6.18;;;4.20;;
23310;SDS011;11828;51.508;18.118;2022-08-21T08:43:37;4.47;;;3.88;;
23310;SDS011;11828;51.508;18.118;2022-08-21T08:46:09;5.32;;;3.95;;
23310;SDS011;11828;51.508;18.118;2022-08-21T08:48:46;5.30;;;3.22;;
23310;SDS011;11828;51.508;18.118;2022-08-21T08:51:25;5.25;;;2.70;;
23310;SDS011;11828;51.508;18.118;2022-08-21T08:54:19;3.75;;;2.58;;
23310;SDS011;11828;51.508;18.118;2022-08-21T08:56:58;3.58;;;2.30;;
23310;SDS011;11828;51.508;18.118;2022-08-21T08:59:27;2.25;;;1.80;;
23310;SDS011;11828;51.508;18.118;2022-08-21T09:02:05;4.35;;;2.17;;
23310;SDS011;11828;51.508;18.118;2022-08-21T09:04:35;2.85;;;2.10;;
23310;SDS011;11828;51.508;18.118;2022-08-21T09:07:06;4.45;;;2.28;;
23310;SDS011;11828;51.508;18.118;2022-08-21T09:10:12;3.42;;;2.22;;
23310;SDS011;11828;51.508;18.118;2022-08-21T09:13:32;4.53;;;2.65;;
23310;SDS011;11828;51.508;18.118;2022-08-21T09:19:22;3.60;;;2.38;;
23310;SDS011;11828;51.508;18.118;2022-08-21T09:25:20;4.05;;;2.40;;
23310;SDS011;11828;51.508;18.118;2022-08-21T09:27:50;3.22;;;1.92;;
23310;SDS011;11828;51.508;18.118;2022-08-21T09:30:17;3.60;;;2.20;;
23310;SDS011;11828;51.508;18.118;2022-08-21T09:32:45;3.78;;;2.20;;
23310;SDS011;11828;51.508;18.118;2022-08-21T09:35:12;2.92;;;2.00;;
23310;SDS011;11828;51.508;18.118;2022-08-21T09:37:59;3.15;;;1.88;;
23310;SDS011;11828;51.508;18.118;2022-08-21T09:40:39;2.90;;;2.08;;
23310;SDS011;11828;51.508;18.118;2022-08-21T09:45:48;3.35;;;2.25;;
23310;SDS011;11828;51.508;18.118;2022-08-21T09:48:20;3.05;;;1.80;;
23310;SDS011;11828;51.508;18.118;2022-08-21T09:50:49;3.03;;;2.22;;
23310;SDS011;11828;51.508;18.118;2022-08-21T09:53:18;2.97;;;2.03;;
23310;SDS011;11828;51.508;18.118;2022-08-21T09:55:57;3.72;;;2.65;;
23310;SDS011;11828;51.508;18.118;2022-08-21T09:59:20;2.88;;;2.30;;
23310;SDS011;11828;51.508;18.118;2022-08-21T10:01:50;5.78;;;4.40;;
23310;SDS011;11828;51.508;18.118;2022-08-21T10:04:27;6.80;;;5.10;;
23310;SDS011;11828;51.508;18.118;2022-08-21T10:07:05;7.28;;;4.57;;
23310;SDS011;11828;51.508;18.118;2022-08-21T10:09:37;10.88;;;7.95;;
23310;SDS011;11828;51.508;18.118;2022-08-21T10:12:25;9.68;;;6.18;;
23310;SDS011;11828;51.508;18.118;2022-08-21T10:15:27;4.40;;;3.30;;
23310;SDS011;11828;51.508;18.118;2022-08-21T10:26:55;4.50;;;3.65;;
23310;SDS011;11828;51.508;18.118;2022-08-21T10:29:53;4.10;;;3.30;;
23310;SDS011;11828;51.508;18.118;2022-08-21T10:32:45;3.95;;;3.53;;
23310;SDS011;11828;51.508;18.118;2022-08-21T10:35:53;4.43;;;3.80;;
23310;SDS011;11828;51.508;18.118;2022-08-21T10:41:45;3.80;;;3.30;;
23310;SDS011;11828;51.508;18.118;2022-08-21T10:47:35;5.53;;;4.05;;
23310;SDS011;11828;51.508;18.118;2022-08-21T10:54:16;3.25;;;2.70;;
23310;SDS011;11828;51.508;18.118;2022-08-21T10:56:32;4.93;;;3.03;;
23310;SDS011;11828;51.508;18.118;2022-08-21T10:59:15;3.63;;;2.63;;
23310;SDS011;11828;51.508;18.118;2022-08-21T11:02:01;3.03;;;2.67;;
23310;SDS011;11828;51.508;18.118;2022-08-21T11:07:32;3.30;;;2.58;;
23310;SDS011;11828;51.508;18.118;2022-08-21T11:10:24;3.58;;;2.95;;
23310;SDS011;11828;51.508;18.118;2022-08-21T11:12:58;2.63;;;2.42;;
23310;SDS011;11828;51.508;18.118;2022-08-21T11:16:16;4.20;;;3.33;;
23310;SDS011;11828;51.508;18.118;2022-08-21T11:22:04;3.45;;;3.00;;
23310;SDS011;11828;51.508;18.118;2022-08-21T11:29:53;3.25;;;2.83;;
23310;SDS011;11828;51.508;18.118;2022-08-21T11:32:28;5.28;;;3.17;;
23310;SDS011;11828;51.508;18.118;2022-08-21T11:46:23;4.13;;;2.83;;
23310;SDS011;11828;51.508;18.118;2022-08-21T11:52:33;4.43;;;2.75;;
23310;SDS011;11828;51.508;18.118;2022-08-21T11:55:18;3.60;;;2.53;;
23310;SDS011;11828;51.508;18.118;2022-08-21T12:01:27;3.40;;;2.60;;
23310;SDS011;11828;51.508;18.118;2022-08-21T12:04:00;3.08;;;2.58;;
23310;SDS011;11828;51.508;18.118;2022-08-21T12:06:54;3.80;;;2.63;;
23310;SDS011;11828;51.508;18.118;2022-08-21T12:11:50;4.07;;;3.13;;
23310;SDS011;11828;51.508;18.118;2022-08-21T12:14:49;5.00;;;2.83;;
23310;SDS011;11828;51.508;18.118;2022-08-21T12:17:34;4.90;;;3.50;;
23310;SDS011;11828;51.508;18.118;2022-08-21T12:20:26;4.38;;;2.72;;
23310;SDS011;11828;51.508;18.118;2022-08-21T12:25:38;5.60;;;3.25;;
23310;SDS011;11828;51.508;18.118;2022-08-21T12:28:36;3.80;;;3.03;;
23310;SDS011;11828;51.508;18.118;2022-08-21T12:31:04;3.78;;;2.80;;
23310;SDS011;11828;51.508;18.118;2022-08-21T12:33:30;4.75;;;3.50;;
23310;SDS011;11828;51.508;18.118;2022-08-21T12:36:11;4.80;;;3.10;;
23310;SDS011;11828;51.508;18.118;2022-08-21T12:38:54;4.95;;;3.08;;
23310;SDS011;11828;51.508;18.118;2022-08-21T12:41:32;4.28;;;3.25;;
23310;SDS011;11828;51.508;18.118;2022-08-21T12:44:13;5.10;;;3.08;;
23310;SDS011;11828;51.508;18.118;2022-08-21T12:46:46;3.67;;;2.92;;
23310;SDS011;11828;51.508;18.118;2022-08-21T12:49:25;4.63;;;3.40;;
23310;SDS011;11828;51.508;18.118;2022-08-21T12:54:59;4.68;;;3.38;;
23310;SDS011;11828;51.508;18.118;2022-08-21T12:57:27;5.82;;;3.60;;
23310;SDS011;11828;51.508;18.118;2022-08-21T12:59:56;3.72;;;3.03;;
23310;SDS011;11828;51.508;18.118;2022-08-21T13:02:35;5.07;;;3.63;;
23310;SDS011;11828;51.508;18.118;2022-08-21T13:05:11;5.55;;;3.58;;
23310;SDS011;11828;51.508;18.118;2022-08-21T13:07:45;4.90;;;3.42;;
23310;SDS011;11828;51.508;18.118;2022-08-21T13:10:18;5.32;;;3.47;;
23310;SDS011;11828;51.508;18.118;2022-08-21T13:12:52;6.55;;;4.03;;
23310;SDS011;11828;51.508;18.118;2022-08-21T13:15:28;7.63;;;4.28;;
23310;SDS011;11828;51.508;18.118;2022-08-21T13:17:57;7.35;;;4.10;;
23310;SDS011;11828;51.508;18.118;2022-08-21T13:20:29;5.63;;;3.55;;
23310;SDS011;11828;51.508;18.118;2022-08-21T13:23:05;8.35;;;4.43;;
23310;SDS011;11828;51.508;18.118;2022-08-21T13:25:45;5.75;;;3.63;;
23310;SDS011;11828;51.508;18.118;2022-08-21T13:28:11;6.55;;;4.05;;
23310;SDS011;11828;51.508;18.118;2022-08-21T13:30:42;6.78;;;4.05;;
23310;SDS011;11828;51.508;18.118;2022-08-21T13:33:13;5.35;;;3.97;;
23310;SDS011;11828;51.508;18.118;2022-08-21T13:35:49;5.93;;;3.95;;
23310;SDS011;11828;51.508;18.118;2022-08-21T13:38:31;6.60;;;4.45;;
23310;SDS011;11828;51.508;18.118;2022-08-21T13:43:44;4.78;;;3.75;;
23310;SDS011;11828;51.508;18.118;2022-08-21T13:46:15;5.53;;;3.70;;
23310;SDS011;11828;51.508;18.118;2022-08-21T13:48:47;5.55;;;4.15;;
23310;SDS011;11828;51.508;18.118;2022-08-21T13:51:13;5.18;;;3.78;;
23310;SDS011;11828;51.508;18.118;2022-08-21T13:56:20;5.45;;;4.03;;
23310;SDS011;11828;51.508;18.118;2022-08-21T13:58:59;6.05;;;3.90;;
23310;SDS011;11828;51.508;18.118;2022-08-21T14:01:33;5.70;;;4.13;;
23310;SDS011;11828;51.508;18.118;2022-08-21T14:06:55;9.55;;;4.97;;
23310;SDS011;11828;51.508;18.118;2022-08-21T14:09:33;4.68;;;3.72;;
23310;SDS011;11828;51.508;18.118;2022-08-21T14:12:15;5.93;;;4.07;;
23310;SDS011;11828;51.508;18.118;2022-08-21T14:14:48;5.55;;;4.00;;
23310;SDS011;11828;51.508;18.118;2022-08-21T14:17:26;5.53;;;3.80;;
23310;SDS011;11828;51.508;18.118;2022-08-21T14:19:57;6.72;;;4.40;;
23310;SDS011;11828;51.508;18.118;2022-08-21T14:22:31;6.43;;;3.75;;
23310;SDS011;11828;51.508;18.118;2022-08-21T14:25:09;5.03;;;3.67;;
23310;SDS011;11828;51.508;18.118;2022-08-21T14:30:50;6.70;;;3.78;;
23310;SDS011;11828;51.508;18.118;2022-08-21T14:33:19;6.55;;;3.97;;
23310;SDS011;11828;51.508;18.118;2022-08-21T14:35:58;5.82;;;3.50;;
23310;SDS011;11828;51.508;18.118;2022-08-21T14:38:27;7.80;;;4.13;;
23310;SDS011;11828;51.508;18.118;2022-08-21T14:40:55;4.78;;;3.63;;
23310;SDS011;11828;51.508;18.118;2022-08-21T14:43:26;6.95;;;4.30;;
23310;SDS011;11828;51.508;18.118;2022-08-21T14:45:53;5.38;;;3.72;;
23310;SDS011;11828;51.508;18.118;2022-08-21T14:48:20;5.95;;;4.28;;
23310;SDS011;11828;51.508;18.118;2022-08-21T14:50:46;6.15;;;3.95;;
23310;SDS011;11828;51.508;18.118;2022-08-21T14:53:12;5.38;;;4.05;;
23310;SDS011;11828;51.508;18.118;2022-08-21T14:55:39;6.05;;;4.35;;
23310;SDS011;11828;51.508;18.118;2022-08-21T14:58:24;7.18;;;4.10;;
23310;SDS011;11828;51.508;18.118;2022-08-21T15:00:51;5.13;;;3.90;;
23310;SDS011;11828;51.508;18.118;2022-08-21T15:03:19;5.45;;;3.80;;
23310;SDS011;11828;51.508;18.118;2022-08-21T15:05:48;6.93;;;3.90;;
23310;SDS011;11828;51.508;18.118;2022-08-21T15:08:14;5.13;;;3.70;;
23310;SDS011;11828;51.508;18.118;2022-08-21T15:10:41;5.95;;;3.90;;
23310;SDS011;11828;51.508;18.118;2022-08-21T15:13:08;6.72;;;4.30;;
23310;SDS011;11828;51.508;18.118;2022-08-21T15:15:42;5.75;;;3.70;;
23310;SDS011;11828;51.508;18.118;2022-08-21T15:18:11;5.97;;;4.18;;
23310;SDS011;11828;51.508;18.118;2022-08-21T15:20:37;4.88;;;3.50;;
23310;SDS011;11828;51.508;18.118;2022-08-21T15:23:04;4.30;;;3.28;;
23310;SDS011;11828;51.508;18.118;2022-08-21T15:25:32;6.43;;;3.65;;
23310;SDS011;11828;51.508;18.118;2022-08-21T15:27:59;5.50;;;3.67;;
23310;SDS011;11828;51.508;18.118;2022-08-21T15:30:26;5.85;;;3.60;;
23310;SDS011;11828;51.508;18.118;2022-08-21T15:32:55;5.88;;;3.88;;
23310;SDS011;11828;51.508;18.118;2022-08-21T15:35:22;5.43;;;3.80;;
23310;SDS011;11828;51.508;18.118;2022-08-21T15:37:48;5.28;;;3.72;;
23310;SDS011;11828;51.508;18.118;2022-08-21T15:40:14;5.78;;;3.95;;
23310;SDS011;11828;51.508;18.118;2022-08-21T15:42:41;4.28;;;3.25;;
23310;SDS011;11828;51.508;18.118;2022-08-21T15:45:09;4.60;;;3.38;;
23310;SDS011;11828;51.508;18.118;2022-08-21T15:47:37;3.90;;;3.00;;
23310;SDS011;11828;51.508;18.118;2022-08-21T15:50:05;4.95;;;3.42;;
23310;SDS011;11828;51.508;18.118;2022-08-21T15:52:33;4.72;;;3.47;;
23310;SDS011;11828;51.508;18.118;2022-08-21T15:55:00;5.25;;;3.65;;
23310;SDS011;11828;51.508;18.118;2022-08-21T15:57:26;5.60;;;3.80;;
23310;SDS011;11828;51.508;18.118;2022-08-21T15:59:54;5.85;;;3.85;;
23310;SDS011;11828;51.508;18.118;2022-08-21T16:02:26;6.75;;;4.35;;
23310;SDS011;11828;51.508;18.118;2022-08-21T16:04:56;5.03;;;3.28;;
23310;SDS011;11828;51.508;18.118;2022-08-21T16:07:23;6.93;;;3.30;;
23310;SDS011;11828;51.508;18.118;2022-08-21T16:09:50;4.22;;;3.13;;
23310;SDS011;11828;51.508;18.118;2022-08-21T16:12:20;5.10;;;3.20;;